sensor_id;sensor_type;location;lat;lon;timestamp;P1;durP1;ratioP1;P2;durP2;ratioP2
22359;SDS011;11347;52.030;4.690;2023-07-22T08:23:45;22.67;;;10.00;;
22359;SDS011;11347;52.030;4.690;2023-07-22T08:26:12;20.77;;;8.67;;
22359;SDS011;11347;52.030;4.690;2023-07-22T08:28:38;23.10;;;8.33;;
22359;SDS011;11347;52.030;4.690;2023-07-22T08:31:03;19.07;;;9.70;;
22359;SDS011;11347;52.030;4.690;2023-07-22T08:33:30;18.17;;;9.27;;
22359;SDS011;11347;52.030;4.690;2023-07-22T08:35:56;16.55;;;8.60;;
22359;SDS011;11347;52.030;4.690;2023-07-22T08:38:21;14.00;;;7.40;;
22359;SDS011;11347;52.030;4.690;2023-07-22T08:40:50;20.00;;;6.90;;
22359;SDS011;11347;52.030;4.690;2023-07-22T08:43:16;14.33;;;6.00;;
22359;SDS011;11347;52.030;4.690;2023-07-22T08:45:45;11.67;;;4.33;;
22359;SDS011;11347;52.030;4.690;2023-07-22T08:48:13;11.90;;;4.53;;
22359;SDS011;11347;52.030;4.690;2023-07-22T08:53:16;14.27;;;4.88;;
22359;SDS011;11347;52.030;4.690;2023-07-22T08:55:44;12.70;;;5.20;;
22359;SDS011;11347;52.030;4.690;2023-07-22T08:58:10;12.03;;;5.03;;
22359;SDS011;11347;52.030;4.690;2023-07-22T09:00:37;13.38;;;4.97;;
22359;SDS011;11347;52.030;4.690;2023-07-22T09:03:04;12.05;;;4.60;;
22359;SDS011;11347;52.030;4.690;2023-07-22T09:05:31;11.02;;;4.57;;
22359;SDS011;11347;52.030;4.690;2023-07-22T09:07:58;8.33;;;3.33;;
22359;SDS011;11347;52.030;4.690;2023-07-22T09:10:26;8.53;;;3.27;;
22359;SDS011;11347;52.030;4.690;2023-07-22T09:12:52;12.05;;;3.75;;
22359;SDS011;11347;52.030;4.690;2023-07-22T09:15:18;7.03;;;3.00;;
22359;SDS011;11347;52.030;4.690;2023-07-22T09:17:45;7.53;;;2.80;;
22359;SDS011;11347;52.030;4.690;2023-07-22T09:20:12;9.60;;;3.25;;
22359;SDS011;11347;52.030;4.690;2023-07-22T09:22:51;11.80;;;3.53;;
22359;SDS011;11347;52.030;4.690;2023-07-22T09:25:18;9.83;;;3.90;;
22359;SDS011;11347;52.030;4.690;2023-07-22T09:27:45;10.95;;;4.10;;
22359;SDS011;11347;52.030;4.690;2023-07-22T09:30:21;10.10;;;3.53;;
22359;SDS011;11347;52.030;4.690;2023-07-22T09:37:40;9.18;;;3.20;;
22359;SDS011;11347;52.030;4.690;2023-07-22T09:40:15;10.68;;;3.13;;
22359;SDS011;11347;52.030;4.690;2023-07-22T09:42:46;9.47;;;3.30;;
22359;SDS011;11347;52.030;4.690;2023-07-22T09:45:12;9.30;;;2.67;;
22359;SDS011;11347;52.030;4.690;2023-07-22T09:47:56;8.20;;;3.03;;
22359;SDS011;11347;52.030;4.690;2023-07-22T09:50:24;7.57;;;3.13;;
22359;SDS011;11347;52.030;4.690;2023-07-22T09:52:54;11.67;;;3.40;;
22359;SDS011;11347;52.030;4.690;2023-07-22T09:55:25;7.80;;;2.90;;
22359;SDS011;11347;52.030;4.690;2023-07-22T09:57:54;10.80;;;3.10;;
22359;SDS011;11347;52.030;4.690;2023-07-22T10:00:31;9.40;;;2.63;;
22359;SDS011;11347;52.030;4.690;2023-07-22T10:02:59;9.17;;;2.80;;
22359;SDS011;11347;52.030;4.690;2023-07-22T10:05:26;9.13;;;2.80;;
22359;SDS011;11347;52.030;4.690;2023-07-22T10:07:55;8.70;;;3.10;;
22359;SDS011;11347;52.030;4.690;2023-07-22T10:10:37;8.20;;;2.77;;
22359;SDS011;11347;52.030;4.690;2023-07-22T10:13:03;11.67;;;2.97;;
22359;SDS011;11347;52.030;4.690;2023-07-22T10:15:31;8.13;;;2.50;;
22359;SDS011;11347;52.030;4.690;2023-07-22T10:18:01;8.60;;;2.43;;
22359;SDS011;11347;52.030;4.690;2023-07-22T10:20:28;9.63;;;2.80;;
22359;SDS011;11347;52.030;4.690;2023-07-22T10:22:54;7.03;;;2.60;;
22359;SDS011;11347;52.030;4.690;2023-07-22T10:25:21;6.53;;;2.90;;
22359;SDS011;11347;52.030;4.690;2023-07-22T10:27:47;7.83;;;2.63;;
22359;SDS011;11347;52.030;4.690;2023-07-22T10:30:15;9.80;;;2.90;;
22359;SDS011;11347;52.030;4.690;2023-07-22T10:32:46;9.50;;;2.70;;
22359;SDS011;11347;52.030;4.690;2023-07-22T10:35:37;6.20;;;2.60;;
22359;SDS011;11347;52.030;4.690;2023-07-22T10:38:11;7.43;;;3.23;;
22359;SDS011;11347;52.030;4.690;2023-07-22T10:40:54;9.97;;;2.63;;
22359;SDS011;11347;52.030;4.690;2023-07-22T10:43:54;6.53;;;2.70;;
22359;SDS011;11347;52.030;4.690;2023-07-22T10:46:20;8.73;;;3.03;;
22359;SDS011;11347;52.030;4.690;2023-07-22T10:49:06;10.43;;;3.50;;
22359;SDS011;11347;52.030;4.690;2023-07-22T10:51:39;8.90;;;2.80;;
22359;SDS011;11347;52.030;4.690;2023-07-22T10:54:14;8.20;;;2.70;;
22359;SDS011;11347;52.030;4.690;2023-07-22T10:56:55;6.27;;;2.27;;
22359;SDS011;11347;52.030;4.690;2023-07-22T10:59:26;7.20;;;2.37;;
22359;SDS011;11347;52.030;4.690;2023-07-22T11:01:52;4.70;;;2.00;;
22359;SDS011;11347;52.030;4.690;2023-07-22T11:04:25;6.67;;;2.03;;
22359;SDS011;11347;52.030;4.690;2023-07-22T11:06:58;5.00;;;2.03;;
22359;SDS011;11347;52.030;4.690;2023-07-22T11:11:55;5.53;;;1.80;;
22359;SDS011;11347;52.030;4.690;2023-07-22T11:14:27;4.97;;;2.00;;
22359;SDS011;11347;52.030;4.690;2023-07-22T11:16:56;7.67;;;2.20;;
22359;SDS011;11347;52.030;4.690;2023-07-22T11:19:23;6.20;;;1.87;;
22359;SDS011;11347;52.030;4.690;2023-07-22T11:21:50;5.33;;;1.77;;
22359;SDS011;11347;52.030;4.690;2023-07-22T11:24:17;4.90;;;1.60;;
22359;SDS011;11347;52.030;4.690;2023-07-22T11:26:44;2.97;;;1.43;;
22359;SDS011;11347;52.030;4.690;2023-07-22T11:29:10;4.53;;;1.83;;
22359;SDS011;11347;52.030;4.690;2023-07-22T11:31:41;4.63;;;1.77;;
22359;SDS011;11347;52.030;4.690;2023-07-22T11:34:09;6.72;;;1.77;;
22359;SDS011;11347;52.030;4.690;2023-07-22T11:36:35;6.87;;;2.23;;
22359;SDS011;11347;52.030;4.690;2023-07-22T11:39:04;3.67;;;1.58;;
22359;SDS011;11347;52.030;4.690;2023-07-22T11:41:31;5.03;;;1.70;;
22359;SDS011;11347;52.030;4.690;2023-07-22T11:43:57;4.53;;;1.50;;
22359;SDS011;11347;52.030;4.690;2023-07-22T11:46:24;2.47;;;1.40;;
22359;SDS011;11347;52.030;4.690;2023-07-22T11:48:53;4.30;;;1.50;;
22359;SDS011;11347;52.030;4.690;2023-07-22T11:51:20;6.23;;;1.43;;
22359;SDS011;11347;52.030;4.690;2023-07-22T11:53:47;6.90;;;1.47;;
22359;SDS011;11347;52.030;4.690;2023-07-22T11:56:32;2.57;;;1.10;;
22359;SDS011;11347;52.030;4.690;2023-07-22T11:58:58;2.80;;;1.27;;
22359;SDS011;11347;52.030;4.690;2023-07-22T12:01:23;5.53;;;1.60;;
22359;SDS011;11347;52.030;4.690;2023-07-22T12:03:49;5.37;;;1.50;;
22359;SDS011;11347;52.030;4.690;2023-07-22T12:06:21;4.13;;;1.10;;
22359;SDS011;11347;52.030;4.690;2023-07-22T12:08:51;5.00;;;1.37;;
22359;SDS011;11347;52.030;4.690;2023-07-22T12:11:20;4.57;;;1.40;;
22359;SDS011;11347;52.030;4.690;2023-07-22T12:13:49;6.30;;;1.43;;
22359;SDS011;11347;52.030;4.690;2023-07-22T12:16:29;3.60;;;1.30;;
22359;SDS011;11347;52.030;4.690;2023-07-22T12:18:55;4.53;;;1.37;;
22359;SDS011;11347;52.030;4.690;2023-07-22T12:21:21;3.97;;;1.53;;
22359;SDS011;11347;52.030;4.690;2023-07-22T12:23:47;5.97;;;1.40;;
22359;SDS011;11347;52.030;4.690;2023-07-22T12:26:12;5.23;;;1.60;;
22359;SDS011;11347;52.030;4.690;2023-07-22T12:28:38;4.35;;;1.60;;
22359;SDS011;11347;52.030;4.690;2023-07-22T12:31:04;6.22;;;1.50;;
22359;SDS011;11347;52.030;4.690;2023-07-22T12:33:29;5.97;;;1.70;;
22359;SDS011;11347;52.030;4.690;2023-07-22T12:35:56;4.57;;;1.50;;
22359;SDS011;11347;52.030;4.690;2023-07-22T12:38:22;3.93;;;1.30;;
22359;SDS011;11347;52.030;4.690;2023-07-22T12:40:48;4.00;;;1.38;;
22359;SDS011;11347;52.030;4.690;2023-07-22T12:45:39;3.28;;;1.50;;
22359;SDS011;11347;52.030;4.690;2023-07-22T12:48:04;2.60;;;1.03;;
22359;SDS011;11347;52.030;4.690;2023-07-22T12:50:30;5.03;;;1.70;;
22359;SDS011;11347;52.030;4.690;2023-07-22T12:52:57;7.30;;;1.40;;
22359;SDS011;11347;52.030;4.690;2023-07-22T12:55:23;4.87;;;1.47;;
22359;SDS011;11347;52.030;4.690;2023-07-22T12:57:48;5.17;;;2.00;;
22359;SDS011;11347;52.030;4.690;2023-07-22T13:00:14;4.13;;;1.53;;
22359;SDS011;11347;52.030;4.690;2023-07-22T13:02:39;3.43;;;1.40;;
22359;SDS011;11347;52.030;4.690;2023-07-22T13:05:05;3.20;;;1.40;;
22359;SDS011;11347;52.030;4.690;2023-07-22T13:07:34;3.57;;;1.80;;
22359;SDS011;11347;52.030;4.690;2023-07-22T13:10:00;4.20;;;1.10;;
22359;SDS011;11347;52.030;4.690;2023-07-22T13:12:27;6.27;;;1.50;;
22359;SDS011;11347;52.030;4.690;2023-07-22T13:14:53;6.50;;;1.87;;
22359;SDS011;11347;52.030;4.690;2023-07-22T13:17:19;4.50;;;1.70;;
22359;SDS011;11347;52.030;4.690;2023-07-22T13:19:45;3.83;;;1.50;;
22359;SDS011;11347;52.030;4.690;2023-07-22T13:22:11;3.10;;;1.20;;
22359;SDS011;11347;52.030;4.690;2023-07-22T13:24:36;4.47;;;1.30;;
22359;SDS011;11347;52.030;4.690;2023-07-22T13:27:02;4.33;;;1.10;;
22359;SDS011;11347;52.030;4.690;2023-07-22T13:29:28;3.70;;;1.50;;
22359;SDS011;11347;52.030;4.690;2023-07-22T13:31:53;4.60;;;1.43;;
22359;SDS011;11347;52.030;4.690;2023-07-22T13:34:19;4.77;;;1.47;;
22359;SDS011;11347;52.030;4.690;2023-07-22T13:36:45;5.00;;;1.50;;
22359;SDS011;11347;52.030;4.690;2023-07-22T13:39:10;4.93;;;1.30;;
22359;SDS011;11347;52.030;4.690;2023-07-22T13:41:36;2.93;;;1.40;;
22359;SDS011;11347;52.030;4.690;2023-07-22T13:44:01;3.97;;;1.40;;
22359;SDS011;11347;52.030;4.690;2023-07-22T13:46:27;5.20;;;1.50;;
22359;SDS011;11347;52.030;4.690;2023-07-22T13:48:53;5.53;;;1.97;;
22359;SDS011;11347;52.030;4.690;2023-07-22T13:51:18;4.77;;;1.40;;
22359;SDS011;11347;52.030;4.690;2023-07-22T13:53:44;3.40;;;1.20;;
22359;SDS011;11347;52.030;4.690;2023-07-22T13:56:09;5.00;;;1.20;;
22359;SDS011;11347;52.030;4.690;2023-07-22T13:58:35;6.93;;;1.47;;
22359;SDS011;11347;52.030;4.690;2023-07-22T14:01:00;4.63;;;1.33;;
22359;SDS011;11347;52.030;4.690;2023-07-22T14:03:26;3.60;;;1.10;;
22359;SDS011;11347;52.030;4.690;2023-07-22T14:05:51;4.47;;;1.30;;
22359;SDS011;11347;52.030;4.690;2023-07-22T14:08:17;3.80;;;1.37;;
22359;SDS011;11347;52.030;4.690;2023-07-22T14:10:42;3.70;;;1.13;;
22359;SDS011;11347;52.030;4.690;2023-07-22T14:13:08;5.47;;;1.40;;
22359;SDS011;11347;52.030;4.690;2023-07-22T14:15:33;7.10;;;1.53;;
22359;SDS011;11347;52.030;4.690;2023-07-22T14:17:59;3.77;;;1.40;;
22359;SDS011;11347;52.030;4.690;2023-07-22T14:20:24;4.20;;;1.37;;
22359;SDS011;11347;52.030;4.690;2023-07-22T14:22:50;3.27;;;1.50;;
22359;SDS011;11347;52.030;4.690;2023-07-22T14:25:16;3.33;;;1.40;;
22359;SDS011;11347;52.030;4.690;2023-07-22T14:27:41;5.83;;;1.30;;
22359;SDS011;11347;52.030;4.690;2023-07-22T14:30:07;4.30;;;1.50;;
22359;SDS011;11347;52.030;4.690;2023-07-22T14:32:33;4.23;;;1.50;;
22359;SDS011;11347;52.030;4.690;2023-07-22T14:34:59;7.77;;;1.60;;
22359;SDS011;11347;52.030;4.690;2023-07-22T14:37:25;3.90;;;1.60;;
22359;SDS011;11347;52.030;4.690;2023-07-22T14:39:50;6.17;;;1.57;;
22359;SDS011;11347;52.030;4.690;2023-07-22T14:42:15;5.33;;;1.53;;
22359;SDS011;11347;52.030;4.690;2023-07-22T14:44:41;5.87;;;1.90;;
22359;SDS011;11347;52.030;4.690;2023-07-22T14:47:06;4.47;;;1.60;;
22359;SDS011;11347;52.030;4.690;2023-07-22T14:49:32;6.53;;;2.07;;
22359;SDS011;11347;52.030;4.690;2023-07-22T14:52:00;8.40;;;2.23;;
22359;SDS011;11347;52.030;4.690;2023-07-22T14:54:26;9.93;;;2.07;;
22359;SDS011;11347;52.030;4.690;2023-07-22T14:56:51;5.27;;;1.60;;
22359;SDS011;11347;52.030;4.690;2023-07-22T14:59:17;6.83;;;2.37;;
22359;SDS011;11347;52.030;4.690;2023-07-22T15:01:42;11.87;;;2.60;;
22359;SDS011;11347;52.030;4.690;2023-07-22T15:04:08;7.17;;;2.10;;
22359;SDS011;11347;52.030;4.690;2023-07-22T15:06:34;5.67;;;2.00;;
22359;SDS011;11347;52.030;4.690;2023-07-22T15:09:00;5.03;;;2.00;;
22359;SDS011;11347;52.030;4.690;2023-07-22T15:11:31;7.40;;;2.23;;
22359;SDS011;11347;52.030;4.690;2023-07-22T15:13:57;12.23;;;2.93;;
22359;SDS011;11347;52.030;4.690;2023-07-22T15:16:22;8.20;;;2.80;;
22359;SDS011;11347;52.030;4.690;2023-07-22T15:18:48;7.63;;;2.30;;
22359;SDS011;11347;52.030;4.690;2023-07-22T15:21:13;5.87;;;2.20;;
22359;SDS011;11347;52.030;4.690;2023-07-22T15:23:39;5.47;;;2.27;;
22359;SDS011;11347;52.030;4.690;2023-07-22T15:26:04;4.37;;;1.90;;
22359;SDS011;11347;52.030;4.690;2023-07-22T15:28:30;5.90;;;2.40;;
22359;SDS011;11347;52.030;4.690;2023-07-22T15:30:55;4.10;;;2.23;;
22359;SDS011;11347;52.030;4.690;2023-07-22T15:33:21;6.80;;;2.20;;
22359;SDS011;11347;52.030;4.690;2023-07-22T15:35:47;4.53;;;1.73;;
22359;SDS011;11347;52.030;4.690;2023-07-22T15:38:12;8.70;;;1.80;;
22359;SDS011;11347;52.030;4.690;2023-07-22T15:40:38;5.37;;;1.70;;
22359;SDS011;11347;52.030;4.690;2023-07-22T15:43:04;5.73;;;1.90;;
22359;SDS011;11347;52.030;4.690;2023-07-22T15:45:30;10.73;;;2.67;;
22359;SDS011;11347;52.030;4.690;2023-07-22T15:47:55;10.97;;;2.13;;
22359;SDS011;11347;52.030;4.690;2023-07-22T15:50:21;8.43;;;1.83;;
22359;SDS011;11347;52.030;4.690;2023-07-22T15:52:46;7.97;;;2.33;;
22359;SDS011;11347;52.030;4.690;2023-07-22T15:55:12;10.83;;;2.07;;
22359;SDS011;11347;52.030;4.690;2023-07-22T15:57:37;7.63;;;1.70;;
22359;SDS011;11347;52.030;4.690;2023-07-22T16:00:03;5.47;;;2.07;;
22359;SDS011;11347;52.030;4.690;2023-07-22T16:02:31;7.07;;;1.87;;
22359;SDS011;11347;52.030;4.690;2023-07-22T16:04:57;6.23;;;1.77;;
22359;SDS011;11347;52.030;4.690;2023-07-22T16:07:22;5.13;;;1.60;;
22359;SDS011;11347;52.030;4.690;2023-07-22T16:09:47;7.83;;;1.63;;
22359;SDS011;11347;52.030;4.690;2023-07-22T16:12:13;5.90;;;1.87;;
22359;SDS011;11347;52.030;4.690;2023-07-22T16:14:38;6.00;;;1.83;;
22359;SDS011;11347;52.030;4.690;2023-07-22T16:17:04;4.57;;;1.60;;
22359;SDS011;11347;52.030;4.690;2023-07-22T16:19:30;7.47;;;2.00;;
22359;SDS011;11347;52.030;4.690;2023-07-22T16:21:55;10.40;;;2.03;;
22359;SDS011;11347;52.030;4.690;2023-07-22T16:24:21;10.13;;;1.90;;
22359;SDS011;11347;52.030;4.690;2023-07-22T16:26:46;6.93;;;2.13;;
22359;SDS011;11347;52.030;4.690;2023-07-22T16:29:12;7.77;;;1.73;;
22359;SDS011;11347;52.030;4.690;2023-07-22T16:31:37;8.50;;;1.87;;
22359;SDS011;11347;52.030;4.690;2023-07-22T16:34:03;6.33;;;1.70;;
22359;SDS011;11347;52.030;4.690;2023-07-22T16:36:29;9.00;;;1.70;;
22359;SDS011;11347;52.030;4.690;2023-07-22T16:38:55;10.27;;;1.80;;
22359;SDS011;11347;52.030;4.690;2023-07-22T16:41:20;10.17;;;1.70;;
22359;SDS011;11347;52.030;4.690;2023-07-22T16:43:46;9.37;;;1.97;;
22359;SDS011;11347;52.030;4.690;2023-07-22T16:46:12;8.57;;;1.70;;
22359;SDS011;11347;52.030;4.690;2023-07-22T16:48:38;7.43;;;1.67;;
22359;SDS011;11347;52.030;4.690;2023-07-22T16:51:03;8.00;;;1.70;;
22359;SDS011;11347;52.030;4.690;2023-07-22T16:53:29;7.53;;;1.83;;
22359;SDS011;11347;52.030;4.690;2023-07-22T16:55:54;9.00;;;1.90;;
22359;SDS011;11347;52.030;4.690;2023-07-22T16:58:20;8.70;;;1.93;;
22359;SDS011;11347;52.030;4.690;2023-07-22T17:00:45;9.03;;;1.70;;
22359;SDS011;11347;52.030;4.690;2023-07-22T17:03:13;6.53;;;1.83;;
22359;SDS011;11347;52.030;4.690;2023-07-22T17:05:39;8.37;;;1.80;;
22359;SDS011;11347;52.030;4.690;2023-07-22T17:08:05;8.70;;;1.60;;
22359;SDS011;11347;52.030;4.690;2023-07-22T17:10:30;12.97;;;1.97;;
22359;SDS011;11347;52.030;4.690;2023-07-22T17:12:56;8.33;;;1.73;;
22359;SDS011;11347;52.030;4.690;2023-07-22T17:15:22;8.33;;;2.00;;
22359;SDS011;11347;52.030;4.690;2023-07-22T17:17:47;6.63;;;1.77;;
22359;SDS011;11347;52.030;4.690;2023-07-22T17:20:13;8.23;;;1.87;;
22359;SDS011;11347;52.030;4.690;2023-07-22T17:22:39;8.13;;;1.77;;
22359;SDS011;11347;52.030;4.690;2023-07-22T17:25:04;5.30;;;1.77;;
22359;SDS011;11347;52.030;4.690;2023-07-22T17:27:30;7.30;;;2.03;;
22359;SDS011;11347;52.030;4.690;2023-07-22T17:29:56;7.53;;;2.10;;
22359;SDS011;11347;52.030;4.690;2023-07-22T17:32:22;8.53;;;2.40;;
